sensor_id;sensor_type;location;lat;lon;timestamp;temperature;humidity
1976;DHT22;988;48.016;7.800;2023-04-03T00:02:10;7.50;99.90
1976;DHT22;988;48.016;7.800;2023-04-03T00:04:36;7.10;99.90
1976;DHT22;988;48.016;7.800;2023-04-03T00:07:01;7.20;99.90
1976;DHT22;988;48.016;7.800;2023-04-03T00:09:27;7.00;99.90
1976;DHT22;988;48.016;7.800;2023-04-03T00:11:52;7.10;99.90
1976;DHT22;988;48.016;7.800;2023-04-03T00:14:18;7.00;99.90
1976;DHT22;988;48.016;7.800;2023-04-03T00:16:43;7.00;99.90
1976;DHT22;988;48.016;7.800;2023-04-03T00:19:09;6.80;99.90
1976;DHT22;988;48.016;7.800;2023-04-03T00:21:37;7.10;99.90
1976;DHT22;988;48.016;7.800;2023-04-03T00:24:03;7.10;99.90
1976;DHT22;988;48.016;7.800;2023-04-03T00:26:28;7.00;99.90
1976;DHT22;988;48.016;7.800;2023-04-03T00:28:54;7.10;99.90
1976;DHT22;988;48.016;7.800;2023-04-03T00:31:19;7.00;99.90
1976;DHT22;988;48.016;7.800;2023-04-03T00:33:45;6.80;99.90
1976;DHT22;988;48.016;7.800;2023-04-03T00:36:12;6.90;99.90
1976;DHT22;988;48.016;7.800;2023-04-03T00:38:38;6.80;99.90
1976;DHT22;988;48.016;7.800;2023-04-03T00:41:04;6.90;99.90
1976;DHT22;988;48.016;7.800;2023-04-03T00:43:30;7.20;99.90
1976;DHT22;988;48.016;7.800;2023-04-03T00:45:57;7.00;99.90
1976;DHT22;988;48.016;7.800;2023-04-03T00:48:31;7.30;99.90
1976;DHT22;988;48.016;7.800;2023-04-03T00:50:58;7.00;99.90
1976;DHT22;988;48.016;7.800;2023-04-03T00:53:29;6.60;99.90
1976;DHT22;988;48.016;7.800;2023-04-03T00:55:56;6.50;99.90
1976;DHT22;988;48.016;7.800;2023-04-03T00:58:31;6.80;99.90
1976;DHT22;988;48.016;7.800;2023-04-03T01:00:58;6.70;99.90
1976;DHT22;988;48.016;7.800;2023-04-03T01:03:25;6.90;99.90
1976;DHT22;988;48.016;7.800;2023-04-03T01:05:51;6.80;99.90
1976;DHT22;988;48.016;7.800;2023-04-03T01:08:17;7.30;99.90
1976;DHT22;988;48.016;7.800;2023-04-03T01:10:43;7.10;99.90
1976;DHT22;988;48.016;7.800;2023-04-03T01:13:23;6.80;99.90
1976;DHT22;988;48.016;7.800;2023-04-03T01:15:49;6.60;99.90
1976;DHT22;988;48.016;7.800;2023-04-03T01:18:15;6.60;99.90
1976;DHT22;988;48.016;7.800;2023-04-03T01:26:18;6.60;99.90
1976;DHT22;988;48.016;7.800;2023-04-03T01:28:43;6.70;99.90
1976;DHT22;988;48.016;7.800;2023-04-03T01:31:28;6.60;99.90
1976;DHT22;988;48.016;7.800;2023-04-03T01:33:55;6.70;99.90
1976;DHT22;988;48.016;7.800;2023-04-03T01:36:27;6.70;99.90
1976;DHT22;988;48.016;7.800;2023-04-03T01:38:54;6.70;99.90
1976;DHT22;988;48.016;7.800;2023-04-03T01:41:20;6.90;99.90
1976;DHT22;988;48.016;7.800;2023-04-03T01:43:46;6.90;99.90
1976;DHT22;988;48.016;7.800;2023-04-03T01:46:13;7.00;99.90
1976;DHT22;988;48.016;7.800;2023-04-03T01:48:38;7.10;99.90
1976;DHT22;988;48.016;7.800;2023-04-03T01:51:04;7.10;99.90
1976;DHT22;988;48.016;7.800;2023-04-03T01:53:30;7.10;99.90
1976;DHT22;988;48.016;7.800;2023-04-03T01:55:55;6.90;99.90
1976;DHT22;988;48.016;7.800;2023-04-03T01:58:21;7.00;99.90
1976;DHT22;988;48.016;7.800;2023-04-03T02:00:46;7.10;99.90
1976;DHT22;988;48.016;7.800;2023-04-03T02:03:12;7.70;99.90
1976;DHT22;988;48.016;7.800;2023-04-03T02:05:38;7.90;99.90
1976;DHT22;988;48.016;7.800;2023-04-03T02:08:04;7.30;99.90
1976;DHT22;988;48.016;7.800;2023-04-03T02:10:29;6.90;99.90
1976;DHT22;988;48.016;7.800;2023-04-03T02:12:55;6.90;99.90
1976;DHT22;988;48.016;7.800;2023-04-03T02:15:20;6.70;99.90
1976;DHT22;988;48.016;7.800;2023-04-03T02:17:46;6.70;99.90
1976;DHT22;988;48.016;7.800;2023-04-03T02:20:12;6.60;99.90
1976;DHT22;988;48.016;7.800;2023-04-03T02:22:37;6.70;99.90
1976;DHT22;988;48.016;7.800;2023-04-03T02:25:03;6.60;99.90
1976;DHT22;988;48.016;7.800;2023-04-03T02:27:29;6.30;99.90
1976;DHT22;988;48.016;7.800;2023-04-03T02:29:55;6.00;99.90
1976;DHT22;988;48.016;7.800;2023-04-03T02:32:20;6.10;99.90
1976;DHT22;988;48.016;7.800;2023-04-03T02:34:46;6.40;99.90
1976;DHT22;988;48.016;7.800;2023-04-03T02:37:12;6.20;99.90
1976;DHT22;988;48.016;7.800;2023-04-03T02:39:37;6.30;99.90
1976;DHT22;988;48.016;7.800;2023-04-03T02:42:03;6.20;99.90
1976;DHT22;988;48.016;7.800;2023-04-03T02:44:29;6.30;99.90
1976;DHT22;988;48.016;7.800;2023-04-03T02:46:54;6.40;99.90
1976;DHT22;988;48.016;7.800;2023-04-03T02:49:20;6.20;99.90
1976;DHT22;988;48.016;7.800;2023-04-03T02:51:46;6.00;99.90
1976;DHT22;988;48.016;7.800;2023-04-03T02:54:11;5.80;99.90
1976;DHT22;988;48.016;7.800;2023-04-03T02:56:37;5.80;99.90
1976;DHT22;988;48.016;7.800;2023-04-03T02:59:03;6.00;99.90
1976;DHT22;988;48.016;7.800;2023-04-03T03:01:29;6.00;99.90
1976;DHT22;988;48.016;7.800;2023-04-03T03:03:57;5.60;99.90
1976;DHT22;988;48.016;7.800;2023-04-03T03:06:23;5.60;99.90
1976;DHT22;988;48.016;7.800;2023-04-03T03:08:49;5.60;99.90
1976;DHT22;988;48.016;7.800;2023-04-03T03:11:15;5.70;99.90
1976;DHT22;988;48.016;7.800;2023-04-03T03:13:40;5.40;99.90
1976;DHT22;988;48.016;7.800;2023-04-03T03:16:06;5.20;99.90
1976;DHT22;988;48.016;7.800;2023-04-03T03:18:32;5.50;99.90
1976;DHT22;988;48.016;7.800;2023-04-03T03:21:00;5.50;99.90
1976;DHT22;988;48.016;7.800;2023-04-03T03:23:27;5.70;99.90
1976;DHT22;988;48.016;7.800;2023-04-03T03:26:03;5.80;99.90
1976;DHT22;988;48.016;7.800;2023-04-03T03:28:29;5.90;99.90
1976;DHT22;988;48.016;7.800;2023-04-03T03:30:54;6.00;99.90
1976;DHT22;988;48.016;7.800;2023-04-03T03:33:20;5.70;99.90
1976;DHT22;988;48.016;7.800;2023-04-03T03:35:46;5.70;99.90
1976;DHT22;988;48.016;7.800;2023-04-03T03:38:11;5.70;99.90
1976;DHT22;988;48.016;7.800;2023-04-03T03:40:37;5.70;99.90
1976;DHT22;988;48.016;7.800;2023-04-03T03:43:03;5.90;99.90
1976;DHT22;988;48.016;7.800;2023-04-03T03:45:28;5.90;99.90
1976;DHT22;988;48.016;7.800;2023-04-03T03:47:54;6.40;99.90
1976;DHT22;988;48.016;7.800;2023-04-03T03:50:20;6.20;99.90
1976;DHT22;988;48.016;7.800;2023-04-03T03:52:46;6.00;99.90
1976;DHT22;988;48.016;7.800;2023-04-03T03:55:12;5.90;99.90
1976;DHT22;988;48.016;7.800;2023-04-03T03:57:37;6.00;99.90
1976;DHT22;988;48.016;7.800;2023-04-03T04:00:03;6.30;99.90
1976;DHT22;988;48.016;7.800;2023-04-03T04:02:29;6.50;99.90
1976;DHT22;988;48.016;7.800;2023-04-03T04:04:55;6.50;99.90
1976;DHT22;988;48.016;7.800;2023-04-03T04:07:21;6.80;99.90
1976;DHT22;988;48.016;7.800;2023-04-03T04:09:47;7.10;99.90
1976;DHT22;988;48.016;7.800;2023-04-03T04:12:13;6.90;99.90
1976;DHT22;988;48.016;7.800;2023-04-03T04:14:38;6.90;99.90
1976;DHT22;988;48.016;7.800;2023-04-03T04:17:05;6.70;99.90
1976;DHT22;988;48.016;7.800;2023-04-03T04:19:30;6.50;99.90
1976;DHT22;988;48.016;7.800;2023-04-03T04:21:56;6.70;99.90
1976;DHT22;988;48.016;7.800;2023-04-03T04:24:21;7.10;99.90
1976;DHT22;988;48.016;7.800;2023-04-03T04:26:48;7.10;99.90
1976;DHT22;988;48.016;7.800;2023-04-03T04:29:14;7.30;99.90
1976;DHT22;988;48.016;7.800;2023-04-03T04:31:39;7.00;99.90
1976;DHT22;988;48.016;7.800;2023-04-03T04:34:05;6.60;99.90
1976;DHT22;988;48.016;7.800;2023-04-03T04:36:31;6.80;99.90
1976;DHT22;988;48.016;7.800;2023-04-03T04:38:56;7.10;99.90
1976;DHT22;988;48.016;7.800;2023-04-03T04:41:23;7.00;99.90
1976;DHT22;988;48.016;7.800;2023-04-03T04:43:49;6.70;99.90
1976;DHT22;988;48.016;7.800;2023-04-03T04:46:15;6.60;99.90
1976;DHT22;988;48.016;7.800;2023-04-03T04:48:41;7.00;99.90
1976;DHT22;988;48.016;7.800;2023-04-03T04:51:07;6.70;99.90
1976;DHT22;988;48.016;7.800;2023-04-03T04:53:33;6.40;99.90
1976;DHT22;988;48.016;7.800;2023-04-03T04:55:59;6.90;99.90
1976;DHT22;988;48.016;7.800;2023-04-03T04:58:24;7.10;99.90
1976;DHT22;988;48.016;7.800;2023-04-03T05:01:05;7.10;99.90
1976;DHT22;988;48.016;7.800;2023-04-03T05:03:31;7.00;99.90
1976;DHT22;988;48.016;7.800;2023-04-03T05:05:57;7.10;99.90
1976;DHT22;988;48.016;7.800;2023-04-03T05:08:23;6.90;99.90
1976;DHT22;988;48.016;7.800;2023-04-03T05:10:49;6.60;99.90
1976;DHT22;988;48.016;7.800;2023-04-03T05:13:15;6.60;99.90
1976;DHT22;988;48.016;7.800;2023-04-03T05:15:40;6.70;99.90
1976;DHT22;988;48.016;7.800;2023-04-03T05:18:06;6.60;99.90
1976;DHT22;988;48.016;7.800;2023-04-03T05:20:33;6.70;99.90
1976;DHT22;988;48.016;7.800;2023-04-03T05:22:58;6.40;99.90
1976;DHT22;988;48.016;7.800;2023-04-03T05:25:24;6.50;99.90
1976;DHT22;988;48.016;7.800;2023-04-03T05:27:50;6.60;99.90
1976;DHT22;988;48.016;7.800;2023-04-03T05:30:16;7.00;99.90
1976;DHT22;988;48.016;7.800;2023-04-03T05:32:41;7.10;99.90
1976;DHT22;988;48.016;7.800;2023-04-03T05:35:08;7.20;99.90
1976;DHT22;988;48.016;7.800;2023-04-03T05:37:34;7.00;99.90
1976;DHT22;988;48.016;7.800;2023-04-03T05:40:00;6.90;99.90
1976;DHT22;988;48.016;7.800;2023-04-03T05:42:27;6.80;99.90
1976;DHT22;988;48.016;7.800;2023-04-03T05:44:52;6.80;99.90
1976;DHT22;988;48.016;7.800;2023-04-03T05:47:18;7.10;99.90
1976;DHT22;988;48.016;7.800;2023-04-03T05:49:44;7.10;99.90
1976;DHT22;988;48.016;7.800;2023-04-03T05:52:27;7.00;99.90
1976;DHT22;988;48.016;7.800;2023-04-03T05:54:53;7.00;99.90
1976;DHT22;988;48.016;7.800;2023-04-03T05:57:18;7.30;99.90
1976;DHT22;988;48.016;7.800;2023-04-03T05:59:45;7.30;99.90
1976;DHT22;988;48.016;7.800;2023-04-03T06:02:13;7.30;99.90
1976;DHT22;988;48.016;7.800;2023-04-03T06:04:39;7.30;99.90
1976;DHT22;988;48.016;7.800;2023-04-03T06:07:05;7.50;99.90
1976;DHT22;988;48.016;7.800;2023-04-03T06:09:31;7.60;99.90
1976;DHT22;988;48.016;7.800;2023-04-03T06:11:57;7.90;99.90
1976;DHT22;988;48.016;7.800;2023-04-03T06:14:26;7.90;99.90
1976;DHT22;988;48.016;7.800;2023-04-03T06:16:52;8.20;99.90
1976;DHT22;988;48.016;7.800;2023-04-03T06:19:18;8.40;99.90
1976;DHT22;988;48.016;7.800;2023-04-03T06:21:44;8.20;99.90
1976;DHT22;988;48.016;7.800;2023-04-03T06:24:11;7.90;99.90
1976;DHT22;988;48.016;7.800;2023-04-03T06:26:37;8.40;99.90
1976;DHT22;988;48.016;7.800;2023-04-03T06:29:03;8.80;99.90
1976;DHT22;988;48.016;7.800;2023-04-03T06:31:30;9.00;99.90
1976;DHT22;988;48.016;7.800;2023-04-03T06:33:55;9.10;99.90
1976;DHT22;988;48.016;7.800;2023-04-03T06:36:22;9.30;99.90
1976;DHT22;988;48.016;7.800;2023-04-03T06:38:48;9.20;99.90
1976;DHT22;988;48.016;7.800;2023-04-03T06:41:14;9.10;99.90
1976;DHT22;988;48.016;7.800;2023-04-03T06:43:40;9.00;99.90
1976;DHT22;988;48.016;7.800;2023-04-03T06:46:06;9.10;99.90
1976;DHT22;988;48.016;7.800;2023-04-03T06:48:31;9.20;99.90
1976;DHT22;988;48.016;7.800;2023-04-03T06:50:57;9.50;99.90
1976;DHT22;988;48.016;7.800;2023-04-03T06:53:23;9.00;99.90
1976;DHT22;988;48.016;7.800;2023-04-03T06:55:48;9.30;99.90
1976;DHT22;988;48.016;7.800;2023-04-03T06:58:14;9.30;99.90
1976;DHT22;988;48.016;7.800;2023-04-03T07:00:41;9.50;99.90
1976;DHT22;988;48.016;7.800;2023-04-03T07:03:06;9.60;99.90
1976;DHT22;988;48.016;7.800;2023-04-03T07:05:32;9.10;99.90
1976;DHT22;988;48.016;7.800;2023-04-03T07:07:58;9.20;99.90
1976;DHT22;988;48.016;7.800;2023-04-03T07:10:24;9.80;99.90
1976;DHT22;988;48.016;7.800;2023-04-03T07:12:49;10.10;99.00
1976;DHT22;988;48.016;7.800;2023-04-03T07:15:15;10.20;97.10
1976;DHT22;988;48.016;7.800;2023-04-03T07:17:41;10.00;95.70
1976;DHT22;988;48.016;7.800;2023-04-03T07:20:07;10.50;94.50
1976;DHT22;988;48.016;7.800;2023-04-03T07:22:33;10.30;91.80
1976;DHT22;988;48.016;7.800;2023-04-03T07:24:59;9.70;94.90
1976;DHT22;988;48.016;7.800;2023-04-03T07:27:25;10.30;92.00
1976;DHT22;988;48.016;7.800;2023-04-03T07:29:51;10.80;90.40
1976;DHT22;988;48.016;7.800;2023-04-03T07:32:17;11.00;84.40
1976;DHT22;988;48.016;7.800;2023-04-03T07:34:43;11.30;82.30
1976;DHT22;988;48.016;7.800;2023-04-03T07:37:09;11.80;78.50
1976;DHT22;988;48.016;7.800;2023-04-03T07:39:35;11.70;75.40
1976;DHT22;988;48.016;7.800;2023-04-03T07:42:02;11.50;75.00
1976;DHT22;988;48.016;7.800;2023-04-03T07:44:28;11.80;74.30
1976;DHT22;988;48.016;7.800;2023-04-03T07:46:54;12.10;70.60
1976;DHT22;988;48.016;7.800;2023-04-03T07:49:23;12.00;69.70
1976;DHT22;988;48.016;7.800;2023-04-03T07:51:49;12.30;70.50
1976;DHT22;988;48.016;7.800;2023-04-03T07:54:15;12.50;68.30
1976;DHT22;988;48.016;7.800;2023-04-03T07:56:41;13.00;67.30
1976;DHT22;988;48.016;7.800;2023-04-03T07:59:08;13.20;64.80
1976;DHT22;988;48.016;7.800;2023-04-03T08:01:34;13.20;64.00
1976;DHT22;988;48.016;7.800;2023-04-03T08:04:00;13.30;63.60
1976;DHT22;988;48.016;7.800;2023-04-03T08:06:26;13.30;63.80
1976;DHT22;988;48.016;7.800;2023-04-03T08:08:53;13.50;63.90
1976;DHT22;988;48.016;7.800;2023-04-03T08:11:19;13.80;63.40
1976;DHT22;988;48.016;7.800;2023-04-03T08:13:46;14.00;60.50
1976;DHT22;988;48.016;7.800;2023-04-03T08:16:16;13.50;59.70
1976;DHT22;988;48.016;7.800;2023-04-03T08:18:42;14.20;60.00
1976;DHT22;988;48.016;7.800;2023-04-03T08:21:09;14.10;59.90
1976;DHT22;988;48.016;7.800;2023-04-03T08:23:36;14.10;58.30
1976;DHT22;988;48.016;7.800;2023-04-03T08:26:15;14.30;58.10
1976;DHT22;988;48.016;7.800;2023-04-03T08:28:42;14.70;56.80
1976;DHT22;988;48.016;7.800;2023-04-03T08:31:10;14.80;55.40
1976;DHT22;988;48.016;7.800;2023-04-03T08:33:38;13.40;55.50
1976;DHT22;988;48.016;7.800;2023-04-03T08:36:06;13.30;57.40
1976;DHT22;988;48.016;7.800;2023-04-03T08:38:33;13.60;57.50
1976;DHT22;988;48.016;7.800;2023-04-03T08:49:43;13.60;55.50
1976;DHT22;988;48.016;7.800;2023-04-03T08:53:01;13.80;56.10
1976;DHT22;988;48.016;7.800;2023-04-03T08:55:05;12.80;57.30
1976;DHT22;988;48.016;7.800;2023-04-03T08:57:35;12.40;57.40
1976;DHT22;988;48.016;7.800;2023-04-03T09:02:41;12.90;58.00
1976;DHT22;988;48.016;7.800;2023-04-03T09:05:16;11.80;57.50
1976;DHT22;988;48.016;7.800;2023-04-03T09:07:49;11.10;59.40
1976;DHT22;988;48.016;7.800;2023-04-03T09:10:24;11.10;58.20
1976;DHT22;988;48.016;7.800;2023-04-03T09:13:01;11.50;57.90
1976;DHT22;988;48.016;7.800;2023-04-03T09:15:28;11.90;58.30
1976;DHT22;988;48.016;7.800;2023-04-03T09:21:02;11.90;56.80
1976;DHT22;988;48.016;7.800;2023-04-03T09:23:33;11.00;57.80
1976;DHT22;988;48.016;7.800;2023-04-03T09:26:12;12.00;58.20
1976;DHT22;988;48.016;7.800;2023-04-03T09:28:41;12.40;56.90
1976;DHT22;988;48.016;7.800;2023-04-03T09:31:22;13.00;56.30
1976;DHT22;988;48.016;7.800;2023-04-03T09:33:58;12.70;54.00
1976;DHT22;988;48.016;7.800;2023-04-03T09:36:48;11.90;56.00
1976;DHT22;988;48.016;7.800;2023-04-03T09:39:15;12.90;56.40
1976;DHT22;988;48.016;7.800;2023-04-03T09:41:42;13.70;55.20
1976;DHT22;988;48.016;7.800;2023-04-03T09:44:22;14.40;54.10
1976;DHT22;988;48.016;7.800;2023-04-03T09:46:48;14.50;52.40
1976;DHT22;988;48.016;7.800;2023-04-03T09:49:13;15.40;50.70
1976;DHT22;988;48.016;7.800;2023-04-03T09:51:39;16.10;49.40
1976;DHT22;988;48.016;7.800;2023-04-03T09:54:38;17.10;46.80
1976;DHT22;988;48.016;7.800;2023-04-03T09:57:14;21.40;40.70
1976;DHT22;988;48.016;7.800;2023-04-03T10:00:04;24.90;39.40
1976;DHT22;988;48.016;7.800;2023-04-03T10:02:35;27.60;33.70
1976;DHT22;988;48.016;7.800;2023-04-03T10:05:01;27.50;30.20
1976;DHT22;988;48.016;7.800;2023-04-03T10:07:36;26.50;30.00
1976;DHT22;988;48.016;7.800;2023-04-03T10:12:40;19.90;35.10
1976;DHT22;988;48.016;7.800;2023-04-03T10:15:13;17.60;37.70
1976;DHT22;988;48.016;7.800;2023-04-03T10:17:58;16.40;39.90
1976;DHT22;988;48.016;7.800;2023-04-03T10:20:36;16.80;41.80
1976;DHT22;988;48.016;7.800;2023-04-03T10:23:17;17.00;40.90
1976;DHT22;988;48.016;7.800;2023-04-03T10:34:40;13.60;45.80
1976;DHT22;988;48.016;7.800;2023-04-03T10:37:30;14.10;45.40
1976;DHT22;988;48.016;7.800;2023-04-03T10:40:28;14.30;44.90
1976;DHT22;988;48.016;7.800;2023-04-03T10:43:17;15.10;44.20
1976;DHT22;988;48.016;7.800;2023-04-03T10:46:02;16.30;43.30
1976;DHT22;988;48.016;7.800;2023-04-03T10:48:49;17.80;40.40
1976;DHT22;988;48.016;7.800;2023-04-03T10:54:30;21.60;37.90
1976;DHT22;988;48.016;7.800;2023-04-03T10:57:06;25.00;33.30
1976;DHT22;988;48.016;7.800;2023-04-03T10:59:45;21.10;33.70
1976;DHT22;988;48.016;7.800;2023-04-03T11:02:17;19.70;37.70
1976;DHT22;988;48.016;7.800;2023-04-03T11:04:48;19.60;36.30
1976;DHT22;988;48.016;7.800;2023-04-03T11:07:25;18.50;37.90
1976;DHT22;988;48.016;7.800;2023-04-03T11:09:58;18.60;38.40
1976;DHT22;988;48.016;7.800;2023-04-03T11:15:53;18.50;38.70
1976;DHT22;988;48.016;7.800;2023-04-03T11:18:22;17.90;39.30
1976;DHT22;988;48.016;7.800;2023-04-03T11:21:00;16.70;40.20
1976;DHT22;988;48.016;7.800;2023-04-03T11:23:35;15.40;42.10
1976;DHT22;988;48.016;7.800;2023-04-03T11:26:11;15.20;44.00
1976;DHT22;988;48.016;7.800;2023-04-03T11:28:38;15.20;43.90
1976;DHT22;988;48.016;7.800;2023-04-03T11:36:58;15.30;42.70
1976;DHT22;988;48.016;7.800;2023-04-03T11:39:30;15.10;43.40
1976;DHT22;988;48.016;7.800;2023-04-03T11:44:47;15.00;43.40
1976;DHT22;988;48.016;7.800;2023-04-03T11:47:46;14.70;44.20
1976;DHT22;988;48.016;7.800;2023-04-03T12:27:02;18.20;38.00
1976;DHT22;988;48.016;7.800;2023-04-03T12:37:57;16.60;40.10
1976;DHT22;988;48.016;7.800;2023-04-03T12:43:53;15.40;42.60
1976;DHT22;988;48.016;7.800;2023-04-03T12:46:28;14.90;44.20
1976;DHT22;988;48.016;7.800;2023-04-03T12:48:57;14.50;45.10
1976;DHT22;988;48.016;7.800;2023-04-03T12:54:03;13.50;45.60
1976;DHT22;988;48.016;7.800;2023-04-03T12:56:31;13.50;46.40
1976;DHT22;988;48.016;7.800;2023-04-03T12:59:34;13.20;46.30
1976;DHT22;988;48.016;7.800;2023-04-03T13:02:01;13.20;46.80
1976;DHT22;988;48.016;7.800;2023-04-03T13:04:28;12.70;47.10
1976;DHT22;988;48.016;7.800;2023-04-03T13:06:54;13.10;47.20
1976;DHT22;988;48.016;7.800;2023-04-03T13:09:26;13.70;46.60
1976;DHT22;988;48.016;7.800;2023-04-03T13:12:22;13.60;45.20
1976;DHT22;988;48.016;7.800;2023-04-03T13:14:59;14.30;45.50
1976;DHT22;988;48.016;7.800;2023-04-03T13:17:26;14.40;44.10
1976;DHT22;988;48.016;7.800;2023-04-03T13:19:53;14.20;44.20
1976;DHT22;988;48.016;7.800;2023-04-03T13:22:38;13.50;45.60
1976;DHT22;988;48.016;7.800;2023-04-03T13:25:12;13.50;47.00
1976;DHT22;988;48.016;7.800;2023-04-03T13:27:39;13.00;47.30
1976;DHT22;988;48.016;7.800;2023-04-03T13:30:20;13.40;47.10
1976;DHT22;988;48.016;7.800;2023-04-03T13:32:46;13.30;47.40
1976;DHT22;988;48.016;7.800;2023-04-03T13:38:00;14.20;46.30
1976;DHT22;988;48.016;7.800;2023-04-03T13:40:26;13.60;45.90
1976;DHT22;988;48.016;7.800;2023-04-03T13:43:00;13.50;46.50
1976;DHT22;988;48.016;7.800;2023-04-03T13:45:28;13.70;46.00
1976;DHT22;988;48.016;7.800;2023-04-03T13:48:18;13.50;46.00
1976;DHT22;988;48.016;7.800;2023-04-03T13:51:03;13.50;45.90
1976;DHT22;988;48.016;7.800;2023-04-03T13:53:31;13.40;45.80
1976;DHT22;988;48.016;7.800;2023-04-03T13:58:27;13.80;45.00
1976;DHT22;988;48.016;7.800;2023-04-03T14:01:20;13.70;45.20
1976;DHT22;988;48.016;7.800;2023-04-03T14:03:57;13.40;45.60
1976;DHT22;988;48.016;7.800;2023-04-03T14:06:23;13.30;46.40
1976;DHT22;988;48.016;7.800;2023-04-03T14:08:50;13.30;46.60
1976;DHT22;988;48.016;7.800;2023-04-03T14:11:28;13.30;45.80
1976;DHT22;988;48.016;7.800;2023-04-03T14:13:56;13.10;46.50
1976;DHT22;988;48.016;7.800;2023-04-03T14:16:28;13.20;46.70
1976;DHT22;988;48.016;7.800;2023-04-03T14:18:55;13.10;46.90
1976;DHT22;988;48.016;7.800;2023-04-03T14:21:21;13.20;47.60
1976;DHT22;988;48.016;7.800;2023-04-03T14:23:46;12.90;47.10
1976;DHT22;988;48.016;7.800;2023-04-03T14:26:15;12.60;47.00
1976;DHT22;988;48.016;7.800;2023-04-03T14:28:43;12.60;47.60
1976;DHT22;988;48.016;7.800;2023-04-03T14:31:10;12.80;47.30
1976;DHT22;988;48.016;7.800;2023-04-03T14:33:36;12.50;47.00
1976;DHT22;988;48.016;7.800;2023-04-03T14:36:15;12.50;48.10
1976;DHT22;988;48.016;7.800;2023-04-03T14:38:41;12.60;47.70
1976;DHT22;988;48.016;7.800;2023-04-03T14:41:07;12.80;47.90
1976;DHT22;988;48.016;7.800;2023-04-03T14:43:32;12.70;48.20
1976;DHT22;988;48.016;7.800;2023-04-03T14:45:58;12.60;47.90
1976;DHT22;988;48.016;7.800;2023-04-03T14:48:26;12.90;48.10
1976;DHT22;988;48.016;7.800;2023-04-03T14:50:53;13.10;46.90
1976;DHT22;988;48.016;7.800;2023-04-03T14:53:19;12.80;46.90
1976;DHT22;988;48.016;7.800;2023-04-03T14:55:48;12.80;48.20
1976;DHT22;988;48.016;7.800;2023-04-03T14:58:16;12.40;48.80
1976;DHT22;988;48.016;7.800;2023-04-03T15:00:43;12.10;48.60
1976;DHT22;988;48.016;7.800;2023-04-03T15:03:18;11.90;49.60
1976;DHT22;988;48.016;7.800;2023-04-03T15:05:45;11.50;50.00
1976;DHT22;988;48.016;7.800;2023-04-03T15:08:21;11.80;50.30
1976;DHT22;988;48.016;7.800;2023-04-03T15:10:48;12.10;48.60
1976;DHT22;988;48.016;7.800;2023-04-03T15:13:14;11.90;49.20
1976;DHT22;988;48.016;7.800;2023-04-03T15:15:40;11.90;49.40
1976;DHT22;988;48.016;7.800;2023-04-03T15:18:06;11.80;49.80
1976;DHT22;988;48.016;7.800;2023-04-03T15:20:32;11.50;49.80
1976;DHT22;988;48.016;7.800;2023-04-03T15:22:59;11.90;49.20
1976;DHT22;988;48.016;7.800;2023-04-03T15:25:29;12.30;48.00
1976;DHT22;988;48.016;7.800;2023-04-03T15:27:56;12.40;46.70
1976;DHT22;988;48.016;7.800;2023-04-03T15:30:22;12.10;47.20
1976;DHT22;988;48.016;7.800;2023-04-03T15:32:49;12.10;47.90
1976;DHT22;988;48.016;7.800;2023-04-03T15:35:14;12.00;47.10
1976;DHT22;988;48.016;7.800;2023-04-03T15:37:40;12.10;47.40
1976;DHT22;988;48.016;7.800;2023-04-03T15:40:08;11.70;47.00
1976;DHT22;988;48.016;7.800;2023-04-03T15:42:34;11.60;47.10
1976;DHT22;988;48.016;7.800;2023-04-03T15:45:00;11.50;47.50
1976;DHT22;988;48.016;7.800;2023-04-03T15:47:26;11.50;47.00
1976;DHT22;988;48.016;7.800;2023-04-03T15:49:53;11.70;46.90
1976;DHT22;988;48.016;7.800;2023-04-03T15:52:19;11.80;47.40
1976;DHT22;988;48.016;7.800;2023-04-03T15:54:45;11.70;46.30
1976;DHT22;988;48.016;7.800;2023-04-03T15:57:11;11.70;46.80
1976;DHT22;988;48.016;7.800;2023-04-03T15:59:36;11.90;46.80
1976;DHT22;988;48.016;7.800;2023-04-03T16:02:04;11.80;47.60
1976;DHT22;988;48.016;7.800;2023-04-03T16:04:30;11.40;47.70
1976;DHT22;988;48.016;7.800;2023-04-03T16:06:56;11.60;48.00
1976;DHT22;988;48.016;7.800;2023-04-03T16:09:22;11.50;47.70
1976;DHT22;988;48.016;7.800;2023-04-03T16:11:47;11.70;47.10
1976;DHT22;988;48.016;7.800;2023-04-03T16:14:13;11.60;47.40
1976;DHT22;988;48.016;7.800;2023-04-03T16:16:39;11.40;47.50
1976;DHT22;988;48.016;7.800;2023-04-03T16:19:05;11.00;47.10
1976;DHT22;988;48.016;7.800;2023-04-03T16:21:32;10.90;47.40
1976;DHT22;988;48.016;7.800;2023-04-03T16:23:58;10.80;47.00
1976;DHT22;988;48.016;7.800;2023-04-03T16:26:24;10.80;47.50
1976;DHT22;988;48.016;7.800;2023-04-03T16:28:50;10.80;47.20
1976;DHT22;988;48.016;7.800;2023-04-03T16:31:16;10.60;47.20
1976;DHT22;988;48.016;7.800;2023-04-03T16:33:42;10.50;47.30
1976;DHT22;988;48.016;7.800;2023-04-03T16:36:07;10.60;47.20
1976;DHT22;988;48.016;7.800;2023-04-03T16:38:33;10.80;46.70
1976;DHT22;988;48.016;7.800;2023-04-03T16:40:58;10.80;47.00
1976;DHT22;988;48.016;7.800;2023-04-03T16:43:30;10.50;47.00
1976;DHT22;988;48.016;7.800;2023-04-03T16:45:56;10.20;47.90
1976;DHT22;988;48.016;7.800;2023-04-03T16:48:22;10.40;48.30
1976;DHT22;988;48.016;7.800;2023-04-03T16:50:48;10.60;47.80
1976;DHT22;988;48.016;7.800;2023-04-03T16:53:15;10.70;47.60
1976;DHT22;988;48.016;7.800;2023-04-03T16:55:41;10.70;47.80
1976;DHT22;988;48.016;7.800;2023-04-03T16:58:07;10.60;46.30
1976;DHT22;988;48.016;7.800;2023-04-03T17:00:33;10.90;46.80
1976;DHT22;988;48.016;7.800;2023-04-03T17:02:59;10.80;46.70
1976;DHT22;988;48.016;7.800;2023-04-03T17:05:25;10.80;45.70
1976;DHT22;988;48.016;7.800;2023-04-03T17:07:51;10.90;45.80
1976;DHT22;988;48.016;7.800;2023-04-03T17:10:17;10.70;45.80
1976;DHT22;988;48.016;7.800;2023-04-03T17:12:42;10.80;46.30
1976;DHT22;988;48.016;7.800;2023-04-03T17:15:08;10.50;46.10
1976;DHT22;988;48.016;7.800;2023-04-03T17:17:34;10.70;45.90
1976;DHT22;988;48.016;7.800;2023-04-03T17:20:02;10.70;46.70
1976;DHT22;988;48.016;7.800;2023-04-03T17:22:28;10.80;46.90
1976;DHT22;988;48.016;7.800;2023-04-03T17:24:54;10.90;47.60
1976;DHT22;988;48.016;7.800;2023-04-03T17:27:20;10.60;47.70
1976;DHT22;988;48.016;7.800;2023-04-03T17:29:46;10.20;49.80
1976;DHT22;988;48.016;7.800;2023-04-03T17:32:11;10.20;49.10
1976;DHT22;988;48.016;7.800;2023-04-03T17:34:37;10.00;49.10
1976;DHT22;988;48.016;7.800;2023-04-03T17:37:03;9.90;50.40
1976;DHT22;988;48.016;7.800;2023-04-03T17:39:28;10.10;49.50
1976;DHT22;988;48.016;7.800;2023-04-03T17:41:54;10.20;49.60
1976;DHT22;988;48.016;7.800;2023-04-03T17:44:20;10.00;49.10
1976;DHT22;988;48.016;7.800;2023-04-03T17:46:46;9.80;51.40
1976;DHT22;988;48.016;7.800;2023-04-03T17:49:11;9.90;50.60
1976;DHT22;988;48.016;7.800;2023-04-03T17:51:40;9.80;50.40
1976;DHT22;988;48.016;7.800;2023-04-03T17:54:06;9.80;50.70
1976;DHT22;988;48.016;7.800;2023-04-03T17:56:32;9.70;50.80
1976;DHT22;988;48.016;7.800;2023-04-03T17:58:58;9.70;50.20
1976;DHT22;988;48.016;7.800;2023-04-03T18:01:29;9.80;51.20
1976;DHT22;988;48.016;7.800;2023-04-03T18:03:57;9.70;50.70
1976;DHT22;988;48.016;7.800;2023-04-03T18:06:32;9.20;52.70
1976;DHT22;988;48.016;7.800;2023-04-03T18:09:03;9.50;53.10
1976;DHT22;988;48.016;7.800;2023-04-03T18:11:30;9.30;53.00
1976;DHT22;988;48.016;7.800;2023-04-03T18:13:57;9.40;52.80
1976;DHT22;988;48.016;7.800;2023-04-03T18:16:23;9.20;52.90
1976;DHT22;988;48.016;7.800;2023-04-03T18:18:49;9.20;53.70